createdAt,value
2023-03-17T00:02:43.794Z,84.25
2023-03-17T00:06:45.506Z,84.38
2023-03-17T00:10:47.806Z,84.53
2023-03-17T00:14:49.436Z,83.97
2023-03-17T00:18:52.552Z,83.91
2023-03-17T00:22:57.578Z,83.75
2023-03-17T00:26:59.763Z,83.77
2023-03-17T00:31:06.308Z,83.73
2023-03-17T00:35:28.616Z,83.92
2023-03-17T00:39:30.218Z,84.09
2023-03-17T00:43:32.614Z,84.40
2023-03-17T00:47:34.265Z,84.36
2023-03-17T00:51:35.836Z,84.59
2023-03-17T00:55:37.407Z,84.71
2023-03-17T00:59:42.389Z,84.58
2023-03-17T01:03:45.988Z,84.79
2023-03-17T01:07:55.040Z,84.51
2023-03-17T01:11:56.788Z,84.26
2023-03-17T01:15:58.374Z,84.39
2023-03-17T01:20:02.979Z,85.40
2023-03-17T01:24:05.297Z,86.16
2023-03-17T01:28:07.395Z,85.59
2023-03-17T01:32:09.004Z,85.43
2023-03-17T01:36:11.238Z,86.13
2023-03-17T01:40:18.183Z,85.78
2023-03-17T01:44:19.856Z,86.10
2023-03-17T01:48:22.898Z,86.34
2023-03-17T01:52:24.584Z,86.30
2023-03-17T01:56:26.178Z,86.91
2023-03-17T02:00:28.357Z,87.11
2023-03-17T02:04:31.449Z,87.67
2023-03-17T02:08:33.229Z,87.73
2023-03-17T02:12:36.406Z,87.68
2023-03-17T02:16:38.147Z,88.14
2023-03-17T02:20:39.705Z,88.00
2023-03-17T02:24:46.065Z,88.56
2023-03-17T02:28:48.220Z,88.60
2023-03-17T02:32:50.702Z,89.93
2023-03-17T02:36:52.500Z,90.30
2023-03-17T02:40:54.307Z,90.96
2023-03-17T02:44:55.912Z,90.98
2023-03-17T02:48:57.773Z,91.08
2023-03-17T02:52:59.609Z,91.42
2023-03-17T02:57:01.247Z,91.82
2023-03-17T03:01:04.192Z,92.13
2023-03-17T03:05:08.780Z,91.98
2023-03-17T03:09:11.828Z,92.08
2023-03-17T03:13:13.604Z,91.91
2023-03-17T03:17:16.028Z,92.20
2023-03-17T03:21:17.597Z,92.08
2023-03-17T03:25:19.340Z,92.20
2023-03-17T03:29:21.163Z,92.13
2023-03-17T03:33:22.847Z,92.19
2023-03-17T03:37:24.534Z,93.01
2023-03-17T03:41:26.324Z,94.04
2023-03-17T03:45:28.313Z,94.64
2023-03-17T03:49:29.983Z,95.17
2023-03-17T03:53:31.622Z,95.58
2023-03-17T03:57:33.457Z,95.40
2023-03-17T04:01:35.582Z,95.91
2023-03-17T04:05:37.141Z,96.01
2023-03-17T04:09:39.375Z,96.64
2023-03-17T04:13:41.110Z,96.91
2023-03-17T04:17:43.082Z,97.05
2023-03-17T04:21:44.644Z,97.47
2023-03-17T04:25:46.959Z,97.74
2023-03-17T04:29:49.062Z,98.32
2023-03-17T04:33:50.607Z,99.29
2023-03-17T04:37:52.176Z,99.65
2023-03-17T04:41:53.775Z,99.43
2023-03-17T04:45:55.396Z,99.72
2023-03-17T04:49:57.030Z,99.93
2023-03-17T04:53:58.615Z,100.00
2023-03-17T04:58:00.234Z,100.00
2023-03-17T05:02:03.452Z,100.00
2023-03-17T05:06:07.190Z,100.00
2023-03-17T05:10:10.413Z,100.00
2023-03-17T05:14:11.986Z,100.00
2023-03-17T05:18:13.612Z,100.00
2023-03-17T05:22:15.652Z,100.00
2023-03-17T05:26:17.339Z,100.00
2023-03-17T05:30:19.371Z,100.00
2023-03-17T05:34:21.025Z,100.00
2023-03-17T05:38:23.065Z,100.00
2023-03-17T05:42:24.700Z,100.00
2023-03-17T05:46:26.796Z,100.00
2023-03-17T05:50:28.576Z,100.00
2023-03-17T05:54:30.346Z,100.00
2023-03-17T05:58:33.373Z,100.00
2023-03-17T06:02:35.787Z,100.00
2023-03-17T06:06:37.735Z,100.00
2023-03-17T06:10:39.452Z,100.00
2023-03-17T06:14:41.374Z,100.00
2023-03-17T06:18:43.387Z,100.00
2023-03-17T06:23:02.303Z,100.00
2023-03-17T06:27:04.822Z,100.00
2023-03-17T06:31:07.442Z,100.00
2023-03-17T06:35:13.374Z,100.00
2023-03-17T06:39:16.230Z,100.00
2023-03-17T06:43:20.368Z,100.00
2023-03-17T06:47:23.566Z,100.00
2023-03-17T06:51:27.387Z,100.00
2023-03-17T06:55:29.607Z,100.00
2023-03-17T06:59:31.445Z,100.00
2023-03-17T07:03:36.731Z,100.00
2023-03-17T07:07:39.614Z,100.00
2023-03-17T07:11:41.430Z,100.00
2023-03-17T07:15:45.444Z,100.00
2023-03-17T07:19:47.545Z,100.00
2023-03-17T07:23:49.238Z,100.00
2023-03-17T07:27:52.034Z,99.33
2023-03-17T07:31:53.952Z,98.27
2023-03-17T07:35:55.663Z,96.86
2023-03-17T07:39:57.356Z,95.95
2023-03-17T07:43:59.753Z,95.19
2023-03-17T07:48:03.006Z,94.12
2023-03-17T07:52:04.962Z,91.58
2023-03-17T07:56:07.072Z,88.97
2023-03-17T08:00:10.255Z,87.93
2023-03-17T08:04:15.026Z,85.00
2023-03-17T08:08:17.996Z,81.60
2023-03-17T08:12:20.301Z,81.07
2023-03-17T08:16:22.141Z,79.57
2023-03-17T08:20:24.686Z,77.01
2023-03-17T08:24:27.214Z,74.31
2023-03-17T08:28:29.828Z,72.63
2023-03-17T08:32:31.671Z,70.88
2023-03-17T08:36:33.996Z,69.51
2023-03-17T08:40:37.275Z,68.76
2023-03-17T08:44:38.931Z,67.85
2023-03-17T08:48:43.256Z,66.67
2023-03-17T08:52:45.867Z,66.10
2023-03-17T08:56:47.808Z,66.61
2023-03-17T09:00:49.758Z,64.32
2023-03-17T09:04:51.355Z,64.62
2023-03-17T09:08:56.646Z,63.11
2023-03-17T09:13:03.079Z,60.91
2023-03-17T09:17:05.943Z,61.25
2023-03-17T09:21:09.837Z,58.74
2023-03-17T09:25:11.357Z,57.93
2023-03-17T09:29:13.622Z,57.74
2023-03-17T09:33:16.284Z,57.89
2023-03-17T09:37:18.693Z,56.80
2023-03-17T09:41:33.603Z,55.96
2023-03-17T09:45:40.603Z,55.84
2023-03-17T09:49:44.853Z,54.65
2023-03-17T09:54:00.236Z,53.24
2023-03-17T09:58:03.952Z,53.88
2023-03-17T10:02:23.975Z,52.68
2023-03-17T10:06:35.317Z,51.82
2023-03-17T10:10:54.254Z,51.18
2023-03-17T10:15:03.787Z,50.38
2023-03-17T10:19:14.892Z,50.39
2023-03-17T10:23:20.594Z,49.32
2023-03-17T10:27:23.283Z,49.29
2023-03-17T10:31:33.485Z,49.45
2023-03-17T10:35:37.549Z,48.09
2023-03-17T10:39:52.421Z,47.66
2023-03-17T10:43:54.024Z,46.14
2023-03-17T10:47:58.325Z,45.74
2023-03-17T10:52:00.896Z,44.76
2023-03-17T10:56:09.673Z,44.28
2023-03-17T11:00:16.726Z,43.80
2023-03-17T11:04:42.309Z,43.25
2023-03-17T11:08:52.280Z,43.13
2023-03-17T11:13:01.852Z,43.97
2023-03-17T11:17:16.572Z,43.73
2023-03-17T11:21:30.256Z,42.00
2023-03-17T11:25:38.053Z,42.78
2023-03-17T11:30:06.280Z,41.50
2023-03-17T11:34:25.669Z,41.40
2023-03-17T11:38:31.519Z,41.40
2023-03-17T11:42:42.019Z,41.50
2023-03-17T11:47:21.449Z,41.35
2023-03-17T11:51:30.510Z,40.84
2023-03-17T11:55:48.526Z,41.03
2023-03-17T12:00:28.254Z,40.77
2023-03-17T12:04:36.261Z,41.52
2023-03-17T12:08:46.918Z,38.38
2023-03-17T12:13:13.285Z,38.20
2023-03-17T12:17:22.149Z,38.39
2023-03-17T12:21:42.412Z,38.76
2023-03-17T12:25:55.140Z,38.28
2023-03-17T12:30:04.100Z,37.05
2023-03-17T12:34:31.371Z,35.29
2023-03-17T12:38:43.422Z,34.58
2023-03-17T12:42:58.854Z,33.55
2023-03-17T12:47:27.425Z,33.82
2023-03-17T12:51:45.055Z,32.70
2023-03-17T12:55:51.268Z,33.31
2023-03-17T13:00:15.423Z,32.64
2023-03-17T13:05:12.482Z,32.66
2023-03-17T13:09:32.003Z,32.83
2023-03-17T13:13:55.865Z,33.11
2023-03-17T13:18:16.585Z,32.78
2023-03-17T13:22:24.423Z,33.18
2023-03-17T13:27:02.205Z,33.02
2023-03-17T13:31:43.768Z,32.81
2023-03-17T13:36:23.838Z,33.58
2023-03-17T13:40:52.610Z,34.10
2023-03-17T13:45:17.438Z,33.96
2023-03-17T13:49:22.458Z,33.82
2023-03-17T13:53:36.788Z,33.83
2023-03-17T13:58:11.345Z,33.60
2023-03-17T14:02:19.287Z,33.13
2023-03-17T14:11:57.988Z,33.63
2023-03-17T14:16:47.806Z,33.80
2023-03-17T14:21:01.620Z,33.75
2023-03-17T14:25:08.572Z,32.96
2023-03-17T14:29:17.394Z,33.29
2023-03-17T14:33:26.225Z,33.26
2023-03-17T14:37:28.524Z,33.70
2023-03-17T14:41:32.232Z,33.08
2023-03-17T14:45:58.823Z,33.37
2023-03-17T14:50:01.640Z,33.60
2023-03-17T14:54:06.305Z,33.07
2023-03-17T14:58:22.856Z,33.43
2023-03-17T15:02:37.859Z,33.78
2023-03-17T15:06:58.160Z,34.21
2023-03-17T15:11:02.311Z,34.14
2023-03-17T15:15:29.319Z,34.34
2023-03-17T15:19:42.397Z,34.48
2023-03-17T15:23:44.014Z,35.27
2023-03-17T15:27:47.124Z,35.02
2023-03-17T15:31:48.812Z,35.60
2023-03-17T15:35:50.867Z,36.19
2023-03-17T15:39:55.149Z,35.96
2023-03-17T15:43:58.301Z,35.96
2023-03-17T15:48:00.821Z,35.97
2023-03-17T15:52:03.165Z,35.81
2023-03-17T15:56:08.655Z,36.23
2023-03-17T16:00:19.333Z,35.71
2023-03-17T16:04:38.904Z,35.75
2023-03-17T16:08:40.564Z,36.02
2023-03-17T16:12:42.318Z,36.47
2023-03-17T16:16:46.338Z,37.61
2023-03-17T16:20:50.974Z,37.66
2023-03-17T16:24:52.983Z,37.88
2023-03-17T16:28:55.850Z,38.70
2023-03-17T16:33:00.990Z,39.12
2023-03-17T16:37:03.350Z,39.91
2023-03-17T16:41:15.262Z,40.27
2023-03-17T16:45:28.440Z,40.46
2023-03-17T16:49:30.079Z,41.30
2023-03-17T16:53:32.770Z,42.08
2023-03-17T16:57:34.436Z,42.21
2023-03-17T17:01:36.262Z,43.07
2023-03-17T17:05:39.284Z,44.34
2023-03-17T17:09:41.428Z,45.36
2023-03-17T17:13:45.499Z,46.46
2023-03-17T17:17:50.911Z,47.09
2023-03-17T17:21:52.495Z,48.11
2023-03-17T17:25:54.756Z,49.02
2023-03-17T17:29:56.526Z,49.61
2023-03-17T17:33:58.304Z,50.66
2023-03-17T17:38:02.450Z,51.46
2023-03-17T17:42:04.262Z,51.83
2023-03-17T17:46:12.591Z,52.51
2023-03-17T17:50:20.167Z,53.81
2023-03-17T17:54:22.132Z,54.20
2023-03-17T17:58:26.235Z,54.94
2023-03-17T18:02:28.177Z,55.34
2023-03-17T18:06:29.908Z,56.00
2023-03-17T18:10:32.095Z,56.62
2023-03-17T18:14:33.798Z,56.97
2023-03-17T18:18:38.180Z,58.01
2023-03-17T18:22:41.163Z,58.57
2023-03-17T18:26:42.883Z,58.86
2023-03-17T18:30:44.711Z,58.67
2023-03-17T18:34:47.833Z,59.48
2023-03-17T18:38:49.967Z,59.98
2023-03-17T18:42:51.609Z,59.83
2023-03-17T18:46:53.326Z,60.12
2023-03-17T18:50:55.250Z,60.50
2023-03-17T18:54:56.974Z,60.84
2023-03-17T18:58:59.642Z,60.74
2023-03-17T19:03:02.535Z,61.24
2023-03-17T19:07:04.285Z,61.45
2023-03-17T19:11:07.954Z,60.71
2023-03-17T19:15:10.748Z,60.84
2023-03-17T19:19:12.293Z,60.87
2023-03-17T19:23:14.131Z,60.68
2023-03-17T19:27:16.910Z,60.93
2023-03-17T19:31:18.669Z,60.74
2023-03-17T19:35:20.976Z,60.60
2023-03-17T19:39:22.617Z,60.11
2023-03-17T19:43:39.556Z,60.08
2023-03-17T19:47:42.499Z,59.76
2023-03-17T19:51:45.035Z,60.70
2023-03-17T19:55:47.183Z,60.51
2023-03-17T19:59:49.801Z,60.34
2023-03-17T20:03:52.306Z,59.78
2023-03-17T20:07:53.870Z,59.72
2023-03-17T20:11:56.699Z,59.42
2023-03-17T20:15:58.618Z,59.72
2023-03-17T20:20:00.611Z,59.76
2023-03-17T20:24:02.852Z,60.13
2023-03-17T20:28:05.619Z,60.53
2023-03-17T20:32:09.003Z,60.99
2023-03-17T20:36:12.686Z,60.47
2023-03-17T20:40:15.312Z,60.35
2023-03-17T20:44:17.919Z,59.67
2023-03-17T20:48:20.269Z,59.32
2023-03-17T20:52:22.408Z,59.50
2023-03-17T20:56:26.580Z,59.87
2023-03-17T21:00:28.463Z,59.81
2023-03-17T21:04:30.081Z,60.01
2023-03-17T21:08:32.729Z,59.76
2023-03-17T21:12:34.402Z,59.46
2023-03-17T21:16:37.434Z,59.40
2023-03-17T21:20:39.241Z,59.20
2023-03-17T21:24:41.936Z,58.57
2023-03-17T21:28:44.346Z,58.57
2023-03-17T21:32:46.587Z,58.65
2023-03-17T21:36:48.276Z,58.17
2023-03-17T21:40:49.923Z,58.15
2023-03-17T21:44:52.351Z,58.12
2023-03-17T21:48:54.201Z,58.02
2023-03-17T21:52:56.236Z,58.14
2023-03-17T21:56:58.974Z,58.30
2023-03-17T22:01:01.833Z,58.39
2023-03-17T22:05:05.031Z,58.36
2023-03-17T22:09:07.465Z,58.82
2023-03-17T22:13:09.106Z,58.74
2023-03-17T22:17:10.755Z,59.02
2023-03-17T22:21:12.970Z,59.37
2023-03-17T22:25:14.644Z,58.91
2023-03-17T22:29:16.407Z,58.48
2023-03-17T22:33:18.237Z,58.68
2023-03-17T22:37:20.244Z,58.62
2023-03-17T22:41:24.340Z,58.98
2023-03-17T22:45:26.507Z,59.17
2023-03-17T22:49:28.100Z,59.59
2023-03-17T22:53:29.711Z,59.89
2023-03-17T22:57:31.493Z,60.38
2023-03-17T23:01:33.376Z,60.44
2023-03-17T23:05:35.096Z,61.19
2023-03-17T23:09:38.581Z,61.61
2023-03-17T23:13:41.721Z,62.03
2023-03-17T23:17:43.289Z,62.29
2023-03-17T23:21:45.253Z,62.33
2023-03-17T23:25:47.165Z,62.52
2023-03-17T23:29:49.143Z,62.86
2023-03-17T23:33:51.392Z,63.29
2023-03-17T23:37:53.008Z,63.32
2023-03-17T23:41:54.785Z,63.52
2023-03-17T23:45:56.474Z,63.83
2023-03-17T23:49:58.134Z,63.95
2023-03-17T23:54:00.135Z,64.38
2023-03-17T23:58:01.771Z,64.48
